Time;durP1;ratioP1;P1;durP2;ratioP2;P2;SDS_P1;SDS_P2;PMS_P1;PMS_P2;Temp;Humidity;BMP_temperature;BMP_pressure;BME280_temperature;BME280_humidity;BME280_pressure;Samples;Min_cycle;Max_cycle;Signal;HPM_P1;HPM_P2
2021/03/12 16:06:14;;;;;;;4.57;0.93;;;10.70;81.60;;;;;;5139532;23;20598;-71
2021/03/12 16:08:40;;;;;;;5.93;1.13;;;10.70;81.90;;;;;;4855720;29;20086;-70
2021/03/12 16:11:06;;;;;;;4.28;0.93;;;10.80;81.80;;;;;;4877521;29;20045;-70
2021/03/12 16:13:32;;;;;;;12.20;3.15;;;10.70;82.10;;;;;;4877055;29;20128;-71
2021/03/12 16:15:58;;;;;;;12.85;1.80;;;10.70;82.70;;;;;;4860686;29;20025;-70
2021/03/12 16:18:24;;;;;;;11.70;1.00;;;10.60;82.70;;;;;;4877476;29;20390;-69
2021/03/12 16:20:50;;;;;;;10.90;1.65;;;10.60;82.70;;;;;;4859789;29;20849;-69
2021/03/12 16:23:16;;;;;;;7.80;1.20;;;10.70;82.50;;;;;;4859830;29;20128;-69
2021/03/12 16:25:42;;;;;;;8.20;1.60;;;10.70;82.40;;;;;;4859760;29;20033;-69
2021/03/12 16:28:09;;;;;;;9.32;2.08;;;10.80;82.50;;;;;;4860939;29;20073;-70
2021/03/12 16:30:36;;;;;;;10.35;1.52;;;10.70;82.90;;;;;;4877003;29;20037;-71
2021/03/12 16:33:02;;;;;;;8.18;1.55;;;10.70;83.20;;;;;;4860619;29;20119;-69
2021/03/12 16:35:28;;;;;;;13.30;2.50;;;10.70;83.60;;;;;;4859223;29;20131;-68
2021/03/12 16:37:53;;;;;;;8.85;2.35;;;10.70;84.10;;;;;;4856225;29;20028;-69
2021/03/12 16:40:20;;;;;;;5.90;0.85;;;10.60;84.00;;;;;;4859939;29;20069;-71
2021/03/12 16:42:47;;;;;;;7.95;1.90;;;10.60;84.10;;;;;;4858921;29;20081;-70
2021/03/12 16:45:14;;;;;;;6.85;1.70;;;10.60;84.40;;;;;;4858902;29;20037;-69
2021/03/12 16:47:41;;;;;;;4.88;1.20;;;10.60;84.50;;;;;;4858856;29;20036;-69
2021/03/12 16:50:07;;;;;;;5.05;1.20;;;10.60;84.10;;;;;;4860555;29;20100;-69
2021/03/12 16:52:35;;;;;;;7.57;2.20;;;10.60;84.00;;;;;;4876576;29;20024;-71
2021/03/12 16:55:00;;;;;;;5.47;1.73;;;10.60;84.20;;;;;;4860256;29;20085;-69
2021/03/12 16:57:26;;;;;;;7.85;1.73;;;10.60;83.80;;;;;;4875388;29;21322;-69
2021/03/12 16:59:52;;;;;;;10.85;2.45;;;10.60;83.20;;;;;;4858382;29;20044;-69
2021/03/12 17:02:19;;;;;;;9.20;1.50;;;10.60;83.20;;;;;;4858207;29;20080;-70
2021/03/12 17:04:46;;;;;;;8.50;1.20;;;10.60;82.10;;;;;;4859801;29;20021;-69
2021/03/12 17:07:13;;;;;;;9.88;2.08;;;10.60;82.70;;;;;;4864569;29;20494;-70
2021/03/12 17:09:39;;;;;;;9.05;1.50;;;10.60;81.80;;;;;;4875324;29;20169;-69
2021/03/12 17:12:05;;;;;;;6.47;1.27;;;10.60;81.40;;;;;;4876290;29;20089;-69
2021/03/12 17:14:31;;;;;;;6.15;1.60;;;10.60;81.80;;;;;;4876965;29;20080;-69
2021/03/12 17:16:57;;;;;;;3.53;1.05;;;10.60;81.20;;;;;;4875136;29;20029;-70
2021/03/12 17:19:22;;;;;;;6.68;2.70;;;10.60;81.00;;;;;;4875950;29;20025;-71
2021/03/12 17:21:48;;;;;;;9.65;1.02;;;10.60;80.80;;;;;;4876310;29;20037;-70
2021/03/12 17:24:14;;;;;;;7.65;2.33;;;10.60;80.90;;;;;;4876799;29;20037;-70
2021/03/12 17:26:40;;;;;;;10.15;1.70;;;10.70;80.60;;;;;;4875191;29;20033;-71
2021/03/12 17:29:06;;;;;;;6.63;1.33;;;10.60;80.60;;;;;;4877250;29;20025;-70
2021/03/12 17:31:32;;;;;;;13.07;1.90;;;10.60;80.70;;;;;;4880287;29;20028;-72
2021/03/12 17:33:58;;;;;;;8.23;2.38;;;10.60;80.80;;;;;;4885497;29;20029;-70
2021/03/12 17:36:24;;;;;;;6.13;1.40;;;10.70;81.10;;;;;;4883179;29;20052;-72
2021/03/12 17:38:50;;;;;;;7.90;1.60;;;10.70;81.50;;;;;;4882151;29;20104;-71
2021/03/12 17:41:16;;;;;;;5.47;1.42;;;10.70;82.10;;;;;;4885879;29;20386;-69
2021/03/12 17:43:43;;;;;;;11.07;1.38;;;10.60;82.80;;;;;;4882100;29;20025;-71
2021/03/12 17:46:08;;;;;;;13.70;2.35;;;10.60;84.10;;;;;;4884525;29;20428;-70
2021/03/12 17:48:34;;;;;;;6.43;1.75;;;10.60;84.20;;;;;;4885867;29;20032;-71
2021/03/12 17:51:01;;;;;;;8.52;1.73;;;10.50;84.30;;;;;;4885212;29;20035;-72
2021/03/12 17:53:29;;;;;;;9.50;1.15;;;10.50;84.40;;;;;;4884573;29;20025;-70
2021/03/12 17:55:54;;;;;;;5.85;1.30;;;10.60;83.70;;;;;;4887183;29;20385;-70
2021/03/12 17:58:21;;;;;;;6.65;1.23;;;10.60;83.80;;;;;;4896775;29;20485;-71
2021/03/12 18:00:48;;;;;;;7.28;1.17;;;10.50;83.90;;;;;;4896553;29;20072;-70
2021/03/12 18:03:14;;;;;;;8.20;1.20;;;10.60;84.70;;;;;;4885758;29;20497;-72
2021/03/12 18:05:41;;;;;;;13.70;1.50;;;10.50;87.20;;;;;;4875604;29;20033;-70
2021/03/12 18:08:09;;;;;;;10.43;2.42;;;10.30;90.80;;;;;;4893520;29;20143;-73
2021/03/12 18:10:37;;;;;;;5.80;1.42;;;10.30;92.10;;;;;;4888988;29;20434;-71
2021/03/12 18:13:05;;;;;;;4.03;1.48;;;10.10;93.40;;;;;;4880804;29;20036;-71
2021/03/12 18:15:32;;;;;;;6.10;1.42;;;9.90;95.10;;;;;;4886074;29;20339;-71
2021/03/12 18:17:58;;;;;;;4.97;0.95;;;9.90;96.60;;;;;;4880609;29;20024;-71
2021/03/12 18:20:23;;;;;;;7.82;1.95;;;9.70;98.50;;;;;;4906749;29;20111;-72
2021/03/12 18:22:50;;;;;;;3.50;1.08;;;9.50;99.90;;;;;;4893572;29;20028;-71
2021/03/12 18:25:17;;;;;;;12.02;1.60;;;9.40;99.90;;;;;;4918023;29;20024;-70
2021/03/12 18:27:43;;;;;;;5.57;1.23;;;9.30;99.90;;;;;;4887136;29;20032;-71
2021/03/12 18:30:13;;;;;;;5.90;1.63;;;9.30;99.90;;;;;;4881240;29;20032;-71
2021/03/12 18:32:39;;;;;;;8.82;1.80;;;9.30;99.90;;;;;;4880817;29;20028;-72
2021/03/12 18:35:06;;;;;;;8.85;1.90;;;9.30;99.90;;;;;;4881169;29;20120;-72
2021/03/12 18:37:32;;;;;;;5.82;1.33;;;9.20;99.90;;;;;;4897642;29;20051;-69
2021/03/12 18:39:58;;;;;;;7.00;1.23;;;9.00;99.90;;;;;;4881713;29;20431;-71
2021/03/12 18:42:25;;;;;;;7.25;1.30;;;9.00;99.90;;;;;;4882071;29;20056;-70
2021/03/12 18:44:51;;;;;;;11.23;2.10;;;9.00;99.90;;;;;;4880906;29;20165;-70
2021/03/12 18:47:17;;;;;;;6.35;1.40;;;9.00;99.90;;;;;;4884488;29;20502;-70
2021/03/12 18:49:43;;;;;;;8.57;1.58;;;9.10;99.90;;;;;;4889591;29;20145;-71
2021/03/12 18:52:10;;;;;;;10.88;1.83;;;9.10;99.90;;;;;;4901178;29;20194;-69
2021/03/12 18:54:39;;;;;;;8.27;1.83;;;9.10;99.90;;;;;;4918350;29;20075;-70
2021/03/12 18:57:06;;;;;;;12.48;1.63;;;9.20;99.90;;;;;;4900800;29;20028;-71
2021/03/12 18:59:32;;;;;;;10.52;1.67;;;9.20;99.90;;;;;;4896632;29;20035;-71
2021/03/12 19:01:58;;;;;;;7.57;1.38;;;9.20;99.90;;;;;;4887196;29;20033;-56
2021/03/12 19:04:26;;;;;;;5.32;1.92;;;9.20;99.90;;;;;;4907222;29;20103;-71
2021/03/12 19:06:53;;;;;;;77.35;31.25;;;9.60;99.90;;;;;;4902597;29;20082;-71
2021/03/12 19:09:23;;;;;;;5.45;1.55;;;9.90;99.90;;;;;;4890447;29;20138;-71
2021/03/12 19:11:49;;;;;;;6.60;1.67;;;9.80;99.90;;;;;;4899508;29;20056;-71
2021/03/12 19:14:15;;;;;;;11.20;2.10;;;9.80;99.90;;;;;;4897863;29;20398;-72
2021/03/12 19:16:41;;;;;;;9.02;1.60;;;9.70;99.90;;;;;;4907725;29;20082;-72
2021/03/12 19:19:09;;;;;;;12.48;1.80;;;9.70;99.90;;;;;;4904181;29;20120;-71
2021/03/12 19:21:38;;;;;;;6.07;1.38;;;9.50;99.90;;;;;;4905213;29;20096;-71
2021/03/12 19:24:05;;;;;;;6.40;1.48;;;9.00;99.90;;;;;;4891571;29;20119;-70
2021/03/12 19:26:31;;;;;;;7.05;1.30;;;8.80;99.90;;;;;;4884712;29;20028;-69
2021/03/12 19:28:56;;;;;;;9.40;2.53;;;8.80;99.90;;;;;;4880290;29;20478;-71
2021/03/12 19:31:22;;;;;;;5.10;1.85;;;8.60;99.90;;;;;;4897373;29;20063;-71
2021/03/12 19:33:49;;;;;;;6.25;2.08;;;8.30;99.90;;;;;;4896170;29;20482;-72
2021/03/12 19:36:16;;;;;;;1.05;0.45;;;8.10;99.90;;;;;;4896525;29;20402;-71
2021/03/12 19:38:42;;;;;;;1.23;0.50;;;8.00;99.90;;;;;;4877306;29;20029;-72
2021/03/12 19:41:08;;;;;;;1.33;0.30;;;8.00;99.90;;;;;;4877207;29;20039;-71
2021/03/12 19:43:33;;;;;;;2.08;0.50;;;7.80;99.90;;;;;;4878049;29;20033;-71
2021/03/12 19:46:00;;;;;;;2.40;0.60;;;7.80;99.90;;;;;;4877106;29;20035;-70
2021/03/12 19:48:25;;;;;;;1.52;0.50;;;7.80;99.90;;;;;;4878944;29;20040;-71
2021/03/12 19:50:51;;;;;;;1.08;0.40;;;7.70;99.90;;;;;;4876985;29;20033;-72
2021/03/12 19:53:17;;;;;;;1.55;0.50;;;7.60;99.90;;;;;;4877348;29;20056;-72
2021/03/12 19:55:43;;;;;;;1.40;0.40;;;7.70;99.90;;;;;;4880195;29;20343;-71
2021/03/12 19:58:09;;;;;;;0.75;0.28;;;7.60;99.90;;;;;;4897027;29;20029;-72
2021/03/12 20:00:34;;;;;;;1.52;0.30;;;7.50;99.90;;;;;;4880612;29;20043;-72
2021/03/12 20:03:00;;;;;;;0.73;0.20;;;7.50;99.90;;;;;;4879151;29;20039;-72
2021/03/12 20:05:28;;;;;;;4.18;0.70;;;7.50;99.90;;;;;;4897883;29;20422;-71
2021/03/12 20:07:54;;;;;;;3.38;0.63;;;7.60;99.90;;;;;;4883969;29;20169;-71
2021/03/12 20:10:20;;;;;;;2.33;0.60;;;7.40;99.90;;;;;;4879684;29;20405;-71
2021/03/12 20:12:46;;;;;;;0.95;0.20;;;7.50;99.90;;;;;;4879130;29;20508;-72
2021/03/12 20:15:12;;;;;;;1.40;0.43;;;7.40;99.90;;;;;;4880764;29;20124;-72
2021/03/12 20:17:39;;;;;;;1.92;0.68;;;7.30;99.90;;;;;;4879940;29;20036;-70
2021/03/12 20:20:06;;;;;;;2.30;0.30;;;7.20;99.90;;;;;;4896609;29;20033;-71
2021/03/12 20:22:32;;;;;;;1.20;0.55;;;7.30;99.90;;;;;;4880233;29;20033;-71
2021/03/12 20:24:58;;;;;;;2.63;0.30;;;7.20;99.90;;;;;;4879106;29;20466;-71
2021/03/12 20:27:24;;;;;;;0.40;0.20;;;7.10;99.90;;;;;;4880340;29;20032;-71
2021/03/12 20:29:50;;;;;;;1.00;0.50;;;7.10;99.90;;;;;;4893338;29;20096;-70
2021/03/12 20:32:16;;;;;;;2.28;0.40;;;6.90;99.90;;;;;;4895212;29;20076;-71
2021/03/12 20:34:43;;;;;;;2.38;0.35;;;7.00;99.90;;;;;;4879664;29;20060;-71
2021/03/12 20:37:09;;;;;;;3.83;0.95;;;7.10;99.90;;;;;;4895553;29;20317;-72
2021/03/12 20:39:35;;;;;;;4.32;0.30;;;7.10;99.90;;;;;;4879706;29;20615;-71
2021/03/12 20:42:01;;;;;;;1.45;0.47;;;6.90;99.90;;;;;;4895698;29;20127;-71
2021/03/12 20:44:28;;;;;;;1.40;0.20;;;6.80;99.90;;;;;;4879991;29;20025;-71
2021/03/12 20:46:54;;;;;;;4.30;0.40;;;6.80;99.90;;;;;;4895922;29;20035;-71
2021/03/12 20:49:20;;;;;;;1.17;0.30;;;6.90;99.90;;;;;;4875773;29;20924;-71
2021/03/12 20:51:50;;;;;;;2.05;0.63;;;6.80;99.90;;;;;;4879512;29;20037;-71
2021/03/12 20:54:16;;;;;;;1.40;0.50;;;6.80;99.90;;;;;;4892663;29;20033;-71
2021/03/12 20:56:43;;;;;;;3.55;0.63;;;6.90;99.90;;;;;;4895586;29;20035;-71
2021/03/12 20:59:09;;;;;;;3.75;0.57;;;6.90;99.90;;;;;;4879010;29;20036;-71
2021/03/12 21:01:35;;;;;;;3.75;0.32;;;6.90;99.90;;;;;;4878940;29;20044;-71
2021/03/12 21:04:00;;;;;;;0.30;0.20;;;6.90;99.90;;;;;;4878765;29;20033;-71
2021/03/12 21:06:26;;;;;;;1.60;0.25;;;7.00;99.90;;;;;;4895470;29;20037;-71
2021/03/12 21:08:52;;;;;;;0.35;0.10;;;7.00;99.90;;;;;;4878189;29;20049;-71
2021/03/12 21:11:18;;;;;;;4.55;0.40;;;7.10;99.90;;;;;;4879467;29;20064;-71
2021/03/12 21:13:45;;;;;;;1.25;0.25;;;7.10;99.90;;;;;;4896416;29;20029;-70
2021/03/12 21:16:11;;;;;;;1.52;0.30;;;6.90;99.90;;;;;;4878942;29;20144;-71
2021/03/12 21:18:37;;;;;;;3.47;0.30;;;6.80;99.90;;;;;;4879657;29;20184;-72
2021/03/12 21:21:04;;;;;;;0.82;0.20;;;6.80;99.90;;;;;;4878257;29;20518;-71
2021/03/12 21:23:29;;;;;;;3.15;0.52;;;6.90;99.90;;;;;;4879096;29;20056;-72
2021/03/12 21:25:55;;;;;;;0.95;0.38;;;7.00;99.90;;;;;;4884165;29;20116;-72
2021/03/12 21:28:21;;;;;;;1.75;0.40;;;7.10;99.90;;;;;;4879084;29;20021;-71
2021/03/12 21:30:47;;;;;;;1.30;0.30;;;7.10;99.90;;;;;;4878889;29;20403;-70
2021/03/12 21:33:13;;;;;;;1.58;0.50;;;7.10;99.90;;;;;;4895749;29;20085;-71
2021/03/12 21:35:39;;;;;;;1.52;0.50;;;7.10;99.90;;;;;;4896070;29;20028;-70
2021/03/12 21:38:05;;;;;;;4.28;0.32;;;7.10;99.90;;;;;;4895178;29;20494;-71
2021/03/12 21:40:32;;;;;;;3.38;0.50;;;7.20;99.90;;;;;;4879276;29;20048;-71
2021/03/12 21:42:57;;;;;;;0.35;0.20;;;7.20;99.90;;;;;;4878535;29;20115;-70
2021/03/12 21:45:24;;;;;;;0.70;0.30;;;7.30;99.90;;;;;;4878625;29;20542;-71
2021/03/12 21:47:50;;;;;;;1.85;1.25;;;7.20;99.90;;;;;;4878333;29;20029;-71
2021/03/12 21:50:19;;;;;;;0.73;0.28;;;7.20;99.90;;;;;;4879035;29;20498;-71
2021/03/12 21:52:47;;;;;;;1.85;0.32;;;7.30;99.90;;;;;;4879017;29;20218;-71
2021/03/12 21:55:15;;;;;;;1.63;0.10;;;7.20;99.90;;;;;;4899074;29;20048;-71
2021/03/12 21:57:41;;;;;;;1.00;0.20;;;7.20;99.90;;;;;;4882855;29;20037;-70
2021/03/12 22:00:10;;;;;;;2.03;0.40;;;7.20;99.90;;;;;;4881721;29;20040;-71
2021/03/12 22:02:36;;;;;;;1.75;0.32;;;7.10;99.90;;;;;;4899688;29;20027;-71
2021/03/12 22:05:03;;;;;;;1.00;0.20;;;7.20;99.90;;;;;;4898534;29;20438;-70
2021/03/12 22:07:29;;;;;;;0.40;0.30;;;7.10;99.90;;;;;;4899234;29;20088;-70
2021/03/12 22:09:55;;;;;;;0.57;0.57;;;7.10;99.90;;;;;;4898542;29;20032;-71
2021/03/12 22:12:20;;;;;;;0.75;0.20;;;7.10;99.90;;;;;;4882926;29;20077;-70
2021/03/12 22:14:46;;;;;;;0.75;0.20;;;7.10;99.90;;;;;;4880806;29;20025;-72
2021/03/12 22:17:12;;;;;;;0.85;0.43;;;7.10;99.90;;;;;;4899073;29;20104;-69
2021/03/12 22:19:38;;;;;;;0.68;0.38;;;7.10;99.90;;;;;;4879319;29;20583;-71
2021/03/12 22:22:03;;;;;;;0.73;0.15;;;7.20;99.90;;;;;;4880889;29;20037;-70
2021/03/12 22:24:31;;;;;;;0.98;0.35;;;7.20;99.90;;;;;;4881842;29;20359;-71
2021/03/12 22:26:58;;;;;;;1.17;0.50;;;7.20;99.90;;;;;;4896447;29;20025;-72
2021/03/12 22:29:23;;;;;;;1.52;0.30;;;7.00;99.90;;;;;;4882548;29;20028;-69
2021/03/12 22:31:49;;;;;;;0.63;0.30;;;7.00;99.90;;;;;;4898094;29;20124;-70
2021/03/12 22:34:15;;;;;;;0.50;0.40;;;6.90;99.90;;;;;;4898591;29;20040;-70
2021/03/12 22:36:42;;;;;;;1.58;0.40;;;6.80;99.90;;;;;;4882142;29;20080;-69
2021/03/12 22:39:08;;;;;;;1.08;0.40;;;6.80;99.90;;;;;;4881925;29;20075;-70
2021/03/12 22:41:34;;;;;;;0.43;0.20;;;6.80;99.90;;;;;;4881903;29;20056;-69
2021/03/12 22:44:00;;;;;;;4.35;0.70;;;6.70;99.90;;;;;;4897888;29;20029;-69
2021/03/12 22:46:27;;;;;;;1.13;0.80;;;6.60;99.90;;;;;;4881036;29;20036;-69
2021/03/12 22:48:52;;;;;;;0.90;0.60;;;6.70;99.90;;;;;;4898217;29;20032;-71
2021/03/12 22:51:18;;;;;;;2.25;0.60;;;6.60;99.90;;;;;;4881673;29;20059;-71
2021/03/12 22:53:44;;;;;;;5.22;2.15;;;6.50;99.90;;;;;;4881927;29;20141;-70
2021/03/12 22:56:10;;;;;;;1.20;0.73;;;6.60;99.90;;;;;;4881083;29;20100;-71
2021/03/12 22:58:37;;;;;;;4.05;0.85;;;6.50;99.90;;;;;;4882096;29;20064;-70
2021/03/12 23:01:02;;;;;;;1.83;1.35;;;6.50;99.90;;;;;;4880604;29;20044;-70
2021/03/12 23:03:28;;;;;;;1.65;1.30;;;6.40;99.90;;;;;;4881643;29;20359;-70
2021/03/12 23:05:54;;;;;;;2.08;1.50;;;6.40;99.90;;;;;;4879028;29;20442;-71
2021/03/12 23:08:21;;;;;;;2.28;1.80;;;6.40;99.90;;;;;;4880741;29;20053;-70
2021/03/12 23:10:53;;;;;;;3.08;2.17;;;6.50;99.90;;;;;;4881548;29;20154;-70
2021/03/12 23:13:22;;;;;;;3.75;2.22;;;6.30;99.90;;;;;;4897578;29;20028;-70
2021/03/12 23:15:51;;;;;;;2.28;1.80;;;6.20;99.90;;;;;;4898089;29;20085;-70
2021/03/12 23:18:18;;;;;;;2.85;2.17;;;6.30;99.90;;;;;;4880975;29;20033;-71
2021/03/12 23:20:49;;;;;;;2.30;1.70;;;6.10;99.90;;;;;;4898549;29;20037;-70
2021/03/12 23:23:20;;;;;;;3.80;1.67;;;6.40;99.90;;;;;;4880996;29;20036;-70
2021/03/12 23:25:46;;;;;;;3.72;1.70;;;6.40;99.90;;;;;;4898454;29;20028;-71
2021/03/12 23:28:14;;;;;;;3.55;2.22;;;6.30;99.90;;;;;;4880840;29;20367;-69
2021/03/12 23:30:46;;;;;;;1.98;1.60;;;6.30;99.90;;;;;;4881911;29;20060;-71
2021/03/12 23:33:21;;;;;;;3.17;2.10;;;6.30;99.90;;;;;;4880573;29;20053;-71
2021/03/12 23:35:54;;;;;;;2.92;2.47;;;6.30;99.90;;;;;;4880653;29;20055;-70
2021/03/12 23:38:19;;;;;;;3.88;2.22;;;6.20;99.90;;;;;;4880561;29;20063;-70
2021/03/12 23:40:45;;;;;;;3.67;1.95;;;6.10;99.90;;;;;;4881271;29;20064;-70
2021/03/12 23:43:13;;;;;;;2.95;2.28;;;6.30;99.90;;;;;;4897002;29;20099;-70
2021/03/12 23:45:39;;;;;;;3.42;2.22;;;6.20;99.90;;;;;;4881040;29;20123;-70
2021/03/12 23:48:07;;;;;;;2.45;1.80;;;6.10;99.90;;;;;;4880235;29;20029;-71
2021/03/12 23:50:46;;;;;;;2.85;2.10;;;6.20;99.90;;;;;;4880956;29;20109;-70
2021/03/12 23:53:11;;;;;;;2.45;1.70;;;6.30;99.90;;;;;;4880550;29;20060;-71
2021/03/12 23:55:37;;;;;;;2.72;2.20;;;6.20;99.90;;;;;;4894883;29;20052;-70
2021/03/12 23:58:03;;;;;;;3.33;2.00;;;6.20;99.90;;;;;;4878064;29;20500;-72
